Matsuto, Japan
Current Conditions -  °F | °C
As of 9:00 AM on Sunday 21 Dec 2014 (Local Time) from RJNK Reporting Station
Rain Showers Rain Showers  
Wind Chill: 36°   Ceiling: 1500
Heat Index: 41°   Visibility: 6mi
Dew Point: 36°   Wind: 8mph
Humidity: 81%   Direction: 220°SW
Pressure: 29.97"   Gusts: NA
Location:  36.52°N, 136.57°E
Report Text: RJNK 210000Z 22007KT 180V260 9999 -SHRA FEW008 BKN015 BKN030 05/02 Q1015
Loading
Personal Weather Stations






























Interactive Weather Map New forecast layout! Learn more

10-Day Weather Forecast

Advertisements
Track Severe Weather on mobile